Time;durP1;ratioP1;P1;durP2;ratioP2;P2;SDS_P1;SDS_P2;PMS_P1;PMS_P2;Temp;Humidity;BMP_temperature;BMP_pressure;BME280_temperature;BME280_humidity;BME280_pressure;Samples;Min_cycle;Max_cycle;Signal;HPM_P1;HPM_P2
2022/01/16 00:04:50;;;;;;;12.07;5.23;;;4.00;99.90;;;;;;5076156;28;20239;-59
2022/01/16 00:07:17;;;;;;;9.77;4.33;;;4.00;99.90;;;;;;5074500;28;20193;-60
2022/01/16 00:09:44;;;;;;;5.97;3.60;;;4.00;99.90;;;;;;5090232;28;20192;-60
2022/01/16 00:12:11;;;;;;;3.77;3.00;;;4.00;99.90;;;;;;5070367;28;20189;-59
2022/01/16 00:14:38;;;;;;;6.10;3.27;;;4.00;99.90;;;;;;5083848;28;20188;-60
2022/01/16 00:17:07;;;;;;;11.80;3.67;;;4.00;99.90;;;;;;5070494;28;20212;-60
2022/01/16 00:19:37;;;;;;;17.80;5.97;;;4.00;99.90;;;;;;5071677;28;20538;-60
2022/01/16 00:22:12;;;;;;;17.83;6.50;;;4.00;99.90;;;;;;5076017;28;20656;-60
2022/01/16 00:24:39;;;;;;;13.60;5.83;;;3.90;99.90;;;;;;5088915;28;20732;-59
2022/01/16 00:27:07;;;;;;;19.43;6.93;;;3.80;99.90;;;;;;5071282;28;20225;-59
2022/01/16 00:29:34;;;;;;;15.80;5.50;;;3.70;99.90;;;;;;5073545;28;20660;-60
2022/01/16 00:32:02;;;;;;;17.40;5.77;;;3.70;99.90;;;;;;5071844;28;20276;-59
2022/01/16 00:34:31;;;;;;;14.13;5.20;;;3.60;99.90;;;;;;5075506;28;20211;-60
2022/01/16 00:36:58;;;;;;;11.90;4.67;;;3.60;99.90;;;;;;5078919;28;20246;-59
2022/01/16 00:39:25;;;;;;;7.80;3.70;;;3.60;99.90;;;;;;5089304;28;20222;-60
2022/01/16 00:41:52;;;;;;;5.57;3.43;;;3.60;99.90;;;;;;5072313;28;20676;-58
2022/01/16 00:44:21;;;;;;;9.37;4.20;;;3.60;99.90;;;;;;5067773;28;20208;-59
2022/01/16 00:46:48;;;;;;;10.47;5.33;;;3.70;99.90;;;;;;5078244;28;20598;-59
2022/01/16 00:49:15;;;;;;;11.60;4.97;;;3.60;99.90;;;;;;5087398;28;20192;-59
2022/01/16 00:51:43;;;;;;;14.80;6.03;;;3.60;99.90;;;;;;5069514;28;20261;-59
2022/01/16 00:54:10;;;;;;;8.20;4.23;;;3.60;99.90;;;;;;5083236;28;20586;-60
2022/01/16 00:56:37;;;;;;;10.97;4.40;;;3.60;99.90;;;;;;5077997;28;20240;-59
2022/01/16 00:59:04;;;;;;;15.10;5.67;;;3.60;99.90;;;;;;5072868;28;20246;-60
2022/01/16 01:01:32;;;;;;;25.17;6.47;;;3.60;99.90;;;;;;5084915;28;20188;-60
2022/01/16 01:03:59;;;;;;;16.27;6.77;;;3.60;99.90;;;;;;5085159;28;20201;-60
2022/01/16 01:06:26;;;;;;;15.57;6.37;;;3.60;99.90;;;;;;5085557;28;20184;-60
2022/01/16 01:08:54;;;;;;;10.17;5.37;;;3.60;99.90;;;;;;5087917;28;20721;-60
2022/01/16 01:11:26;;;;;;;11.90;5.10;;;3.50;99.90;;;;;;5080294;28;20193;-60
2022/01/16 01:14:16;;;;;;;16.23;5.67;;;3.50;99.90;;;;;;5081122;28;20537;-61
2022/01/16 01:16:52;;;;;;;10.07;4.57;;;3.50;99.90;;;;;;5081232;28;20314;-60
2022/01/16 01:19:22;;;;;;;11.00;4.60;;;3.40;99.90;;;;;;5075711;28;20192;-59
2022/01/16 01:21:49;;;;;;;9.13;4.27;;;3.40;99.90;;;;;;5074591;28;20576;-59
2022/01/16 01:24:18;;;;;;;15.47;5.60;;;3.40;99.90;;;;;;5069317;28;20200;-61
2022/01/16 01:26:53;;;;;;;13.93;5.47;;;3.50;99.90;;;;;;5077825;28;20568;-59
2022/01/16 01:29:21;;;;;;;14.73;5.37;;;3.50;99.90;;;;;;5077337;28;20598;-60
2022/01/16 01:31:51;;;;;;;10.33;5.10;;;3.50;99.90;;;;;;5077296;28;20228;-60
2022/01/16 01:34:19;;;;;;;10.33;5.00;;;3.50;99.90;;;;;;5080981;28;20192;-60
2022/01/16 01:36:48;;;;;;;8.43;4.40;;;3.50;99.90;;;;;;5060467;28;20295;-59
2022/01/16 01:39:18;;;;;;;18.63;6.00;;;3.50;99.90;;;;;;5083138;28;20238;-59
2022/01/16 01:41:46;;;;;;;12.00;5.33;;;3.60;99.90;;;;;;5085599;28;20216;-59
2022/01/16 01:52:27;;;;;;;18.90;6.60;;;3.50;99.90;;;;;;5067790;28;20188;-59
2022/01/16 01:54:56;;;;;;;12.20;5.30;;;3.40;99.90;;;;;;5081343;28;20193;-59
2022/01/16 01:57:23;;;;;;;13.80;5.80;;;3.30;99.90;;;;;;5084248;28;20228;-60
2022/01/16 01:59:50;;;;;;;15.63;6.67;;;3.20;99.90;;;;;;5081681;28;20193;-60
2022/01/16 02:02:17;;;;;;;15.40;5.53;;;3.20;99.90;;;;;;5071833;28;20208;-60
2022/01/16 02:04:44;;;;;;;13.53;5.17;;;3.10;99.90;;;;;;5062769;28;20208;-60
2022/01/16 02:07:12;;;;;;;12.60;6.27;;;3.10;99.90;;;;;;5085592;28;20651;-60
2022/01/16 02:09:39;;;;;;;7.63;3.73;;;3.10;99.90;;;;;;5091144;28;20185;-60
2022/01/16 02:12:09;;;;;;;6.30;3.30;;;3.10;99.90;;;;;;5085245;28;20197;-60
2022/01/16 02:14:51;;;;;;;9.93;4.00;;;3.20;99.90;;;;;;5072968;28;20200;-60
2022/01/16 02:28:23;;;;;;;16.50;5.80;;;3.30;99.90;;;;;;5092135;28;20200;-59
2022/01/16 02:31:16;;;;;;;13.93;5.50;;;3.30;99.90;;;;;;5091793;28;20271;-60
2022/01/16 02:36:33;;;;;;;14.13;5.93;;;3.30;99.90;;;;;;5089174;28;20561;-59
2022/01/16 02:39:07;;;;;;;13.00;5.53;;;3.20;99.90;;;;;;5090160;28;20267;-60
2022/01/16 02:41:35;;;;;;;19.40;6.33;;;3.20;99.90;;;;;;5079967;28;20192;-60
2022/01/16 02:44:11;;;;;;;17.37;6.00;;;3.20;99.90;;;;;;5089313;28;20196;-61
2022/01/16 02:46:39;;;;;;;17.47;6.93;;;3.20;99.90;;;;;;5087595;28;20263;-59
2022/01/16 02:49:21;;;;;;;13.77;5.97;;;3.20;99.90;;;;;;5087575;28;20200;-59
2022/01/16 02:51:49;;;;;;;15.83;7.13;;;3.20;99.90;;;;;;5073140;28;20200;-60
2022/01/16 02:54:18;;;;;;;22.53;6.07;;;3.10;99.90;;;;;;5069525;28;20205;-59
2022/01/16 02:56:45;;;;;;;21.47;7.57;;;3.10;99.90;;;;;;5087521;28;20232;-60
2022/01/16 02:59:13;;;;;;;21.70;6.90;;;3.10;99.90;;;;;;5083956;28;20204;-59
2022/01/16 03:01:40;;;;;;;21.50;7.87;;;3.20;99.90;;;;;;5071595;28;20215;-60
2022/01/16 03:04:08;;;;;;;19.10;7.00;;;3.10;99.90;;;;;;5080365;28;20294;-60
2022/01/16 03:06:35;;;;;;;27.13;7.80;;;3.10;99.90;;;;;;5082757;28;20193;-61
2022/01/16 03:09:06;;;;;;;24.37;7.57;;;3.10;99.90;;;;;;5080150;28;20192;-59
2022/01/16 03:11:40;;;;;;;18.43;7.77;;;3.10;99.90;;;;;;5076330;28;20665;-61
2022/01/16 03:14:11;;;;;;;18.97;6.93;;;3.10;99.90;;;;;;5071885;28;20203;-59
2022/01/16 03:16:41;;;;;;;28.60;7.93;;;3.10;99.90;;;;;;5070021;28;20622;-60
2022/01/16 03:21:54;;;;;;;19.83;7.30;;;3.10;99.90;;;;;;5057574;28;20196;-60
2022/01/16 03:24:21;;;;;;;22.20;8.27;;;3.00;99.90;;;;;;5079939;28;20196;-59
2022/01/16 03:26:50;;;;;;;19.13;7.87;;;3.10;99.90;;;;;;5073576;28;20279;-60
2022/01/16 03:29:17;;;;;;;27.57;8.67;;;3.00;99.90;;;;;;5065831;28;20560;-60
2022/01/16 03:31:44;;;;;;;30.73;8.97;;;3.00;99.90;;;;;;5088241;28;20678;-60
2022/01/16 03:34:11;;;;;;;27.57;9.00;;;3.00;99.90;;;;;;5089344;28;20660;-60
2022/01/16 03:36:39;;;;;;;17.83;7.37;;;3.00;99.90;;;;;;5079388;28;20279;-59
2022/01/16 03:39:06;;;;;;;20.77;7.13;;;3.00;99.90;;;;;;5072458;28;20926;-60
2022/01/16 03:41:34;;;;;;;20.23;7.40;;;3.00;99.90;;;;;;5079059;28;20606;-60
2022/01/16 03:44:04;;;;;;;15.60;6.67;;;3.00;99.90;;;;;;5088497;28;20203;-59
2022/01/16 03:46:34;;;;;;;24.97;8.50;;;3.10;99.90;;;;;;5076819;28;20234;-62
2022/01/16 03:49:04;;;;;;;30.57;10.00;;;3.10;99.90;;;;;;5087392;28;20226;-60
2022/01/16 03:51:31;;;;;;;25.40;9.03;;;3.10;99.90;;;;;;5080826;28;20197;-60
2022/01/16 03:53:58;;;;;;;33.47;9.73;;;3.10;99.90;;;;;;5087142;28;20204;-61
2022/01/16 03:56:25;;;;;;;26.60;9.17;;;3.10;99.90;;;;;;5079419;28;20240;-59
2022/01/16 03:58:53;;;;;;;24.73;9.27;;;3.00;99.90;;;;;;5087143;28;20600;-60
2022/01/16 04:01:21;;;;;;;26.10;9.10;;;2.90;99.90;;;;;;5084235;28;20188;-60
2022/01/16 04:03:48;;;;;;;22.27;8.67;;;3.00;99.90;;;;;;5087981;28;20207;-60
2022/01/16 04:06:15;;;;;;;27.87;10.33;;;3.00;99.90;;;;;;5065887;28;20567;-60
2022/01/16 04:08:42;;;;;;;23.87;8.97;;;3.00;99.90;;;;;;5081804;28;20590;-59
2022/01/16 04:11:10;;;;;;;23.83;8.73;;;2.90;99.90;;;;;;5078572;28;20208;-60
2022/01/16 04:13:40;;;;;;;21.37;8.30;;;2.90;99.90;;;;;;5076445;28;20204;-60
2022/01/16 04:16:07;;;;;;;18.10;6.97;;;2.90;99.90;;;;;;5090630;28;20528;-61
2022/01/16 04:18:36;;;;;;;12.07;5.77;;;2.90;99.90;;;;;;5073580;28;20545;-59
2022/01/16 04:21:03;;;;;;;20.80;6.97;;;3.00;99.90;;;;;;5063244;28;20729;-59
2022/01/16 04:23:30;;;;;;;26.43;9.17;;;3.00;99.90;;;;;;5088588;28;20544;-59
2022/01/16 04:25:57;;;;;;;19.80;7.30;;;3.10;99.90;;;;;;5089204;28;20196;-60
2022/01/16 04:28:27;;;;;;;21.47;8.10;;;3.10;99.90;;;;;;5070257;28;20656;-60
2022/01/16 04:30:54;;;;;;;20.80;7.20;;;3.10;99.90;;;;;;5088885;28;20250;-60
2022/01/16 04:33:21;;;;;;;33.00;8.80;;;3.10;99.90;;;;;;5078158;28;20188;-60
2022/01/16 04:35:50;;;;;;;18.63;7.03;;;3.10;99.90;;;;;;5071969;28;20261;-60
2022/01/16 04:38:17;;;;;;;16.27;6.77;;;3.10;99.90;;;;;;5085402;28;20231;-59
2022/01/16 04:43:47;;;;;;;21.70;7.53;;;3.10;99.90;;;;;;5085619;28;20254;-59
2022/01/16 04:43:48;;;;;;;25.23;8.63;;;3.10;99.90;;;;;;5078026;28;20598;-59
2022/01/16 04:46:16;;;;;;;19.20;6.90;;;3.10;99.90;;;;;;5085314;28;20300;-59
2022/01/16 04:48:43;;;;;;;23.13;7.97;;;3.00;99.90;;;;;;5076231;28;20687;-60
2022/01/16 04:51:12;;;;;;;23.43;8.73;;;3.00;99.90;;;;;;5080490;28;20211;-59
2022/01/16 04:53:39;;;;;;;21.13;8.07;;;2.90;99.90;;;;;;5080710;28;20525;-60
2022/01/16 04:56:07;;;;;;;15.50;7.33;;;2.90;99.90;;;;;;5082366;28;20232;-60
2022/01/16 04:58:34;;;;;;;19.10;7.53;;;2.90;99.90;;;;;;5086206;28;20219;-59
2022/01/16 05:01:02;;;;;;;22.80;8.03;;;2.90;99.90;;;;;;5080879;28;20729;-60
2022/01/16 05:03:30;;;;;;;19.80;7.27;;;2.90;99.90;;;;;;5085276;28;20793;-60
2022/01/16 05:05:57;;;;;;;16.43;6.27;;;2.90;99.90;;;;;;5077702;28;20189;-60
2022/01/16 05:08:26;;;;;;;12.03;5.90;;;2.90;99.90;;;;;;5078761;28;20224;-59
2022/01/16 05:10:55;;;;;;;15.37;6.13;;;3.00;99.90;;;;;;5079588;28;20227;-59
2022/01/16 05:13:31;;;;;;;16.20;6.37;;;3.00;99.90;;;;;;5082401;28;20204;-59
2022/01/16 05:18:44;;;;;;;10.67;4.97;;;3.10;99.90;;;;;;5071478;28;20235;-59
2022/01/16 05:21:11;;;;;;;20.77;6.00;;;3.20;99.90;;;;;;5063750;28;20254;-59
2022/01/16 05:23:41;;;;;;;8.97;4.70;;;3.20;99.90;;;;;;5068663;28;20208;-61
2022/01/16 05:26:08;;;;;;;11.50;5.47;;;3.20;99.90;;;;;;5070167;28;20514;-59
2022/01/16 05:28:36;;;;;;;16.80;7.07;;;3.20;99.90;;;;;;5059165;28;20239;-59
2022/01/16 05:31:03;;;;;;;17.27;6.70;;;3.20;99.90;;;;;;5084811;28;20690;-60
2022/01/16 05:33:31;;;;;;;12.23;5.73;;;3.30;99.90;;;;;;5088700;28;20204;-59
2022/01/16 05:35:58;;;;;;;10.33;5.20;;;3.30;99.90;;;;;;5072575;28;20204;-59
2022/01/16 05:38:26;;;;;;;14.93;5.67;;;3.40;99.90;;;;;;5093751;28;20200;-61
2022/01/16 05:40:54;;;;;;;9.20;5.17;;;3.40;99.90;;;;;;5090033;28;20196;-59
2022/01/16 05:43:21;;;;;;;9.97;5.00;;;3.40;99.90;;;;;;5091806;28;20211;-60
2022/01/16 05:45:49;;;;;;;24.63;7.50;;;3.40;99.90;;;;;;5088896;28;20203;-59
2022/01/16 05:48:16;;;;;;;17.53;7.03;;;3.40;99.90;;;;;;5089834;28;20184;-60
2022/01/16 05:50:43;;;;;;;14.90;6.40;;;3.40;99.90;;;;;;5088119;28;20606;-60
2022/01/16 05:53:10;;;;;;;11.13;5.20;;;3.30;99.90;;;;;;5081232;28;20200;-59
2022/01/16 05:55:37;;;;;;;20.10;6.87;;;3.30;99.90;;;;;;5087047;28;20228;-59
2022/01/16 05:58:06;;;;;;;16.73;6.30;;;3.30;99.90;;;;;;5088032;28;20208;-59
2022/01/16 06:00:33;;;;;;;17.00;6.43;;;3.30;99.90;;;;;;5086809;28;20739;-59
2022/01/16 06:03:01;;;;;;;13.67;5.60;;;3.30;99.90;;;;;;5085162;28;20534;-59
2022/01/16 06:05:28;;;;;;;14.07;5.70;;;3.20;99.90;;;;;;5083524;28;20207;-59
2022/01/16 06:07:59;;;;;;;9.20;5.00;;;3.20;99.90;;;;;;5082331;28;20688;-60
2022/01/16 06:10:26;;;;;;;16.00;5.93;;;3.30;99.90;;;;;;5079473;28;20195;-59
2022/01/16 06:12:54;;;;;;;17.80;6.40;;;3.20;99.90;;;;;;5076320;28;20283;-59
2022/01/16 06:15:24;;;;;;;18.13;6.40;;;3.20;99.90;;;;;;5075282;28;20651;-59
2022/01/16 06:17:51;;;;;;;19.63;6.03;;;3.20;99.90;;;;;;5091908;28;20212;-60
2022/01/16 06:20:18;;;;;;;16.73;6.80;;;3.20;99.90;;;;;;5079775;28;20254;-60
2022/01/16 06:22:46;;;;;;;21.00;7.40;;;3.20;99.90;;;;;;5091541;28;20559;-60
2022/01/16 06:25:14;;;;;;;14.17;7.00;;;3.10;99.90;;;;;;5074764;28;20660;-59
2022/01/16 06:27:45;;;;;;;21.97;6.93;;;3.00;99.90;;;;;;5072594;28;20309;-60
2022/01/16 06:30:13;;;;;;;15.13;5.87;;;2.90;99.90;;;;;;5091893;28;20219;-59
2022/01/16 06:32:42;;;;;;;17.13;6.43;;;2.80;99.90;;;;;;5079756;28;20200;-60
2022/01/16 06:35:10;;;;;;;33.77;8.50;;;2.80;99.90;;;;;;5081274;28;20563;-59
2022/01/16 06:37:38;;;;;;;21.60;6.80;;;2.80;99.90;;;;;;5091096;28;20652;-60
2022/01/16 06:40:06;;;;;;;16.77;6.70;;;2.70;99.90;;;;;;5092306;28;20192;-59
2022/01/16 06:42:33;;;;;;;24.30;7.23;;;2.80;99.90;;;;;;5087590;28;20200;-60
2022/01/16 06:45:01;;;;;;;15.67;6.73;;;2.80;99.90;;;;;;5087201;28;20283;-60
2022/01/16 06:47:28;;;;;;;15.30;6.20;;;2.80;99.90;;;;;;5089918;28;20630;-60
2022/01/16 06:49:56;;;;;;;16.93;5.60;;;2.80;99.90;;;;;;5079120;28;20796;-59
2022/01/16 06:52:23;;;;;;;21.00;7.50;;;2.80;99.90;;;;;;5085701;28;20576;-60
2022/01/16 06:54:50;;;;;;;19.37;7.07;;;2.80;99.90;;;;;;5064884;28;20207;-60
2022/01/16 06:57:18;;;;;;;17.53;6.37;;;2.80;99.90;;;;;;5085434;28;20232;-60
2022/01/16 06:59:47;;;;;;;12.90;5.17;;;2.80;99.90;;;;;;5066981;28;20201;-59
2022/01/16 07:02:16;;;;;;;14.63;6.40;;;2.80;99.90;;;;;;5085013;28;20192;-60
2022/01/16 07:04:44;;;;;;;11.83;5.30;;;2.80;99.90;;;;;;5083194;28;20437;-60
2022/01/16 07:07:13;;;;;;;10.27;5.40;;;2.80;99.90;;;;;;5066701;28;20201;-59
2022/01/16 07:09:40;;;;;;;14.70;6.63;;;2.80;99.90;;;;;;5084862;28;20191;-60
2022/01/16 07:12:08;;;;;;;19.97;7.00;;;2.80;99.90;;;;;;5053504;28;20255;-60
2022/01/16 07:14:35;;;;;;;11.63;5.53;;;2.80;99.90;;;;;;5072493;28;20201;-59
2022/01/16 07:17:02;;;;;;;11.97;5.70;;;2.80;99.90;;;;;;5084953;28;20204;-61
2022/01/16 07:19:29;;;;;;;18.07;7.30;;;2.80;99.90;;;;;;5073761;28;20274;-59
2022/01/16 07:21:57;;;;;;;18.77;6.50;;;2.80;99.90;;;;;;5071567;28;20653;-59
2022/01/16 07:24:25;;;;;;;15.57;6.23;;;2.80;99.90;;;;;;5074688;28;20196;-60
2022/01/16 07:26:54;;;;;;;20.00;7.90;;;2.80;99.90;;;;;;5074332;28;20201;-60
2022/01/16 07:29:21;;;;;;;12.73;5.63;;;2.80;99.90;;;;;;5074761;28;20272;-60
2022/01/16 07:31:48;;;;;;;11.57;5.13;;;2.80;99.90;;;;;;5062521;28;20605;-60
2022/01/16 07:34:16;;;;;;;10.17;5.50;;;2.70;99.90;;;;;;5074886;28;20204;-61
2022/01/16 07:36:43;;;;;;;23.33;8.77;;;2.80;99.90;;;;;;5075726;28;20193;-58
2022/01/16 07:39:10;;;;;;;14.47;6.23;;;2.80;99.90;;;;;;5084980;28;20216;-60
2022/01/16 07:41:39;;;;;;;18.77;8.20;;;2.90;99.90;;;;;;5069633;28;20212;-60
2022/01/16 07:44:06;;;;;;;25.03;9.13;;;2.90;99.90;;;;;;5069449;28;20200;-59
2022/01/16 07:46:33;;;;;;;20.07;8.20;;;2.90;99.90;;;;;;5086268;28;20200;-61
2022/01/16 07:49:00;;;;;;;28.23;8.57;;;2.90;99.90;;;;;;5068203;28;20192;-60
2022/01/16 07:51:27;;;;;;;17.73;7.00;;;2.90;99.90;;;;;;5083702;28;20567;-60
2022/01/16 07:53:55;;;;;;;21.53;7.03;;;2.90;99.90;;;;;;5079092;28;20288;-60
2022/01/16 07:56:22;;;;;;;20.60;7.13;;;2.90;99.90;;;;;;5081606;28;20231;-59
2022/01/16 07:58:51;;;;;;;18.00;7.00;;;2.90;99.90;;;;;;5083945;28;20358;-59
2022/01/16 08:01:18;;;;;;;15.77;7.23;;;2.90;99.90;;;;;;5081638;28;20276;-58
2022/01/16 08:03:45;;;;;;;18.73;7.67;;;2.90;99.90;;;;;;5081009;28;20197;-60
2022/01/16 08:06:13;;;;;;;15.40;6.40;;;2.90;99.90;;;;;;5084562;28;20529;-59
2022/01/16 08:08:40;;;;;;;18.80;6.57;;;2.90;99.90;;;;;;5082409;28;20204;-59
2022/01/16 08:11:09;;;;;;;16.10;7.13;;;2.90;99.90;;;;;;5079212;28;20231;-59
2022/01/16 08:13:36;;;;;;;14.73;6.33;;;3.00;99.90;;;;;;5084208;28;20204;-59
2022/01/16 08:16:05;;;;;;;16.10;6.90;;;3.00;99.90;;;;;;5063402;28;20196;-59
2022/01/16 08:18:33;;;;;;;16.57;7.33;;;3.10;99.90;;;;;;5078693;28;20216;-59
2022/01/16 08:21:00;;;;;;;23.77;9.07;;;3.10;99.90;;;;;;5077747;28;20188;-59
2022/01/16 08:23:28;;;;;;;14.50;6.93;;;3.00;99.90;;;;;;5078549;28;20208;-60
2022/01/16 08:25:55;;;;;;;26.37;9.90;;;3.00;99.90;;;;;;5071950;28;20664;-58
2022/01/16 08:28:22;;;;;;;21.03;7.87;;;3.10;99.90;;;;;;5070544;28;20299;-59
2022/01/16 08:30:49;;;;;;;22.47;8.67;;;3.10;99.90;;;;;;5073496;28;20196;-60
2022/01/16 08:33:18;;;;;;;17.17;7.03;;;3.10;99.90;;;;;;5074014;28;20196;-60
2022/01/16 08:35:45;;;;;;;10.67;5.37;;;3.20;99.90;;;;;;5059248;28;20567;-59
2022/01/16 08:38:12;;;;;;;11.77;5.30;;;3.20;99.90;;;;;;5079302;28;20217;-59
2022/01/16 08:40:40;;;;;;;21.07;7.70;;;3.20;99.90;;;;;;5062967;28;20575;-59
2022/01/16 08:43:08;;;;;;;20.07;7.80;;;3.30;99.90;;;;;;5084870;28;20197;-59
2022/01/16 08:45:37;;;;;;;15.43;6.50;;;3.30;99.90;;;;;;5064915;28;20743;-59
2022/01/16 08:48:05;;;;;;;20.33;7.67;;;3.20;99.90;;;;;;5078948;28;20216;-59
2022/01/16 08:50:34;;;;;;;17.80;8.13;;;3.30;99.90;;;;;;5085350;28;20196;-59
2022/01/16 08:53:02;;;;;;;13.30;6.03;;;3.20;99.90;;;;;;5085847;28;20203;-60
2022/01/16 08:55:29;;;;;;;10.47;5.27;;;3.20;99.90;;;;;;5082167;28;20199;-60
2022/01/16 08:57:59;;;;;;;9.77;4.60;;;3.20;99.90;;;;;;5081625;28;20199;-60
2022/01/16 09:00:27;;;;;;;13.57;6.07;;;3.20;99.90;;;;;;5081615;28;20204;-60
2022/01/16 09:02:54;;;;;;;13.73;6.30;;;3.30;99.90;;;;;;5066889;28;20263;-60
2022/01/16 09:05:21;;;;;;;17.70;7.67;;;3.30;99.90;;;;;;5079114;28;20592;-59
2022/01/16 09:07:50;;;;;;;14.80;6.57;;;3.30;99.90;;;;;;5087939;28;20204;-59
2022/01/16 09:10:17;;;;;;;18.77;7.60;;;3.30;99.90;;;;;;5083728;28;20262;-60
2022/01/16 09:12:45;;;;;;;16.73;7.40;;;3.30;99.90;;;;;;5086447;28;20665;-60
2022/01/16 09:15:13;;;;;;;23.97;8.70;;;3.30;99.90;;;;;;5077291;28;20199;-61
2022/01/16 09:17:41;;;;;;;15.53;7.10;;;3.20;99.90;;;;;;5084744;28;20257;-59
2022/01/16 09:20:13;;;;;;;16.53;6.43;;;3.30;99.90;;;;;;5078719;28;20695;-60
2022/01/16 09:22:40;;;;;;;13.53;5.37;;;3.30;99.90;;;;;;5087332;28;20212;-60
2022/01/16 09:25:11;;;;;;;9.57;5.33;;;3.30;99.90;;;;;;5086814;28;20574;-60
2022/01/16 09:27:38;;;;;;;10.57;5.00;;;3.30;99.90;;;;;;5069756;28;20208;-60
2022/01/16 09:30:08;;;;;;;26.40;9.80;;;3.30;99.90;;;;;;5082250;28;20212;-60
2022/01/16 09:32:36;;;;;;;17.57;7.20;;;3.30;99.90;;;;;;5077019;28;20193;-60
2022/01/16 09:35:06;;;;;;;15.73;7.23;;;3.30;99.90;;;;;;5086044;28;20194;-60
2022/01/16 09:37:33;;;;;;;16.03;6.67;;;3.30;99.90;;;;;;5063421;28;20196;-60
2022/01/16 09:40:00;;;;;;;18.47;7.60;;;3.40;99.90;;;;;;5074605;28;20235;-61
2022/01/16 09:42:29;;;;;;;14.87;6.20;;;3.40;99.90;;;;;;5089137;28;20237;-60
2022/01/16 09:44:57;;;;;;;16.50;6.17;;;3.50;99.90;;;;;;5092546;28;20246;-60
2022/01/16 09:47:24;;;;;;;13.77;5.90;;;3.50;99.90;;;;;;5087052;28;20197;-59
2022/01/16 09:49:55;;;;;;;17.03;6.47;;;3.50;99.90;;;;;;5086814;28;20192;-59
2022/01/16 09:52:22;;;;;;;15.43;6.10;;;3.50;99.90;;;;;;5084374;28;20196;-61
2022/01/16 09:54:49;;;;;;;32.30;9.57;;;3.60;99.90;;;;;;5092765;28;20204;-61
2022/01/16 09:57:17;;;;;;;22.43;9.00;;;3.50;99.90;;;;;;5085901;28;20260;-60
2022/01/16 09:59:46;;;;;;;19.60;7.93;;;3.50;99.90;;;;;;5087711;28;20270;-61
2022/01/16 10:02:13;;;;;;;12.77;5.80;;;3.50;99.90;;;;;;5081322;28;20743;-60
2022/01/16 10:04:43;;;;;;;11.13;5.47;;;3.60;99.90;;;;;;5083899;28;20196;-60
2022/01/16 10:07:12;;;;;;;21.33;7.17;;;3.70;99.90;;;;;;5080209;28;20196;-60
2022/01/16 10:09:42;;;;;;;28.53;8.60;;;3.70;99.90;;;;;;5086219;28;20196;-60
2022/01/16 10:12:16;;;;;;;12.97;5.90;;;3.80;99.90;;;;;;5083985;28;20261;-61
2022/01/16 10:14:49;;;;;;;21.90;8.20;;;3.80;99.90;;;;;;5073404;28;20288;-61
2022/01/16 10:17:18;;;;;;;25.03;8.17;;;3.80;99.90;;;;;;5086615;28;20189;-60
2022/01/16 10:19:46;;;;;;;18.43;6.63;;;3.80;99.90;;;;;;5079835;28;20680;-59
2022/01/16 10:22:15;;;;;;;22.97;7.73;;;3.80;99.90;;;;;;5085727;28;20204;-59
2022/01/16 10:24:43;;;;;;;22.53;7.50;;;3.80;99.90;;;;;;5085105;28;20557;-60
2022/01/16 10:27:17;;;;;;;18.57;6.60;;;3.80;99.90;;;;;;5070495;28;20207;-60
2022/01/16 10:29:52;;;;;;;18.03;6.53;;;3.80;99.90;;;;;;5089050;28;20188;-60
2022/01/16 10:32:21;;;;;;;21.87;6.17;;;3.90;99.90;;;;;;5062057;28;20232;-61
2022/01/16 10:34:51;;;;;;;13.40;5.73;;;3.90;99.90;;;;;;5082965;28;20596;-60
2022/01/16 10:37:21;;;;;;;17.53;6.50;;;3.90;99.90;;;;;;5088418;28;20542;-61
2022/01/16 10:39:57;;;;;;;17.30;5.90;;;3.90;99.90;;;;;;5091346;28;20699;-59
2022/01/16 10:42:24;;;;;;;22.47;6.17;;;3.90;99.90;;;;;;5088754;28;20203;-60
2022/01/16 10:45:01;;;;;;;26.10;6.40;;;3.90;99.90;;;;;;5082325;28;20200;-59
2022/01/16 10:47:34;;;;;;;20.43;6.30;;;3.90;99.90;;;;;;5087230;28;20203;-59
2022/01/16 10:50:11;;;;;;;19.80;6.13;;;3.90;99.90;;;;;;5080769;28;20235;-61
2022/01/16 10:52:53;;;;;;;19.20;6.07;;;3.90;99.90;;;;;;5082010;28;20671;-60
2022/01/16 10:55:23;;;;;;;23.67;7.37;;;3.90;99.90;;;;;;5085591;28;20628;-60
2022/01/16 10:57:51;;;;;;;9.10;4.80;;;4.00;99.90;;;;;;5084744;28;20200;-60
2022/01/16 11:00:22;;;;;;;17.77;5.97;;;4.00;99.90;;;;;;5085020;28;20307;-60
2022/01/16 11:02:51;;;;;;;27.77;7.17;;;4.00;99.90;;;;;;5090183;28;20200;-60
2022/01/16 11:05:20;;;;;;;15.47;5.47;;;4.00;99.90;;;;;;5085164;28;20288;-59
2022/01/16 11:07:57;;;;;;;9.83;4.77;;;3.90;99.90;;;;;;5086620;28;20288;-60
2022/01/16 11:10:27;;;;;;;18.80;5.83;;;4.00;99.90;;;;;;5066881;28;20212;-61
2022/01/16 11:12:56;;;;;;;10.50;4.87;;;4.10;99.90;;;;;;5083917;28;20185;-61
2022/01/16 11:15:25;;;;;;;10.03;4.93;;;4.10;99.90;;;;;;5084408;28;20212;-60
2022/01/16 11:17:53;;;;;;;20.67;5.90;;;4.20;99.90;;;;;;5084352;28;20200;-59
2022/01/16 11:20:27;;;;;;;8.83;4.60;;;4.20;99.90;;;;;;5076731;28;20220;-62
2022/01/16 11:23:13;;;;;;;16.27;5.27;;;4.20;99.90;;;;;;5083741;28;20530;-60
2022/01/16 11:25:43;;;;;;;10.07;4.50;;;4.30;99.90;;;;;;5075946;28;20552;-60
2022/01/16 11:28:12;;;;;;;14.27;4.03;;;4.30;99.90;;;;;;5067856;28;20207;-61
2022/01/16 11:30:44;;;;;;;17.27;5.70;;;4.30;99.90;;;;;;5090083;28;20663;-60
2022/01/16 11:33:12;;;;;;;16.27;5.80;;;4.30;99.90;;;;;;5086809;28;20625;-61
2022/01/16 11:35:49;;;;;;;14.83;5.20;;;4.40;99.90;;;;;;5082995;28;20185;-59
2022/01/16 11:38:20;;;;;;;18.90;6.17;;;4.40;99.90;;;;;;5059833;28;20207;-60
2022/01/16 11:40:48;;;;;;;29.40;7.07;;;4.40;99.90;;;;;;5079821;28;20212;-60
2022/01/16 11:43:23;;;;;;;14.03;5.47;;;4.30;99.90;;;;;;5081793;28;20185;-59
2022/01/16 11:46:03;;;;;;;21.00;6.43;;;4.10;99.90;;;;;;5078848;28;20200;-60
2022/01/16 11:48:36;;;;;;;36.50;6.90;;;4.00;99.90;;;;;;5087421;28;20529;-60
2022/01/16 11:51:04;;;;;;;20.77;6.20;;;4.00;99.90;;;;;;5082362;28;20226;-59
2022/01/16 11:54:05;;;;;;;20.73;5.97;;;3.80;99.90;;;;;;5083247;28;20204;-60
2022/01/16 11:56:53;;;;;;;10.07;4.03;;;3.80;99.90;;;;;;5027432;28;20301;-62
2022/01/16 11:59:22;;;;;;;18.60;5.80;;;3.80;99.90;;;;;;5085825;28;20196;-61
2022/01/16 12:01:53;;;;;;;15.43;5.23;;;3.80;99.90;;;;;;5088606;28;20212;-61
2022/01/16 12:04:58;;;;;;;16.83;5.17;;;3.80;99.90;;;;;;5084226;28;20241;-61
2022/01/16 12:07:47;;;;;;;11.70;4.10;;;3.90;99.90;;;;;;5083376;28;20195;-62
2022/01/16 12:10:41;;;;;;;23.20;5.97;;;4.00;99.90;;;;;;5070745;28;20194;-61
2022/01/16 12:13:54;;;;;;;14.27;4.77;;;4.00;99.90;;;;;;5069585;28;20200;-61
2022/01/16 12:16:43;;;;;;;12.27;4.37;;;4.10;99.90;;;;;;5077053;28;20561;-61
2022/01/16 12:19:46;;;;;;;13.27;4.40;;;4.00;99.90;;;;;;5073387;28;20341;-62
2022/01/16 12:22:35;;;;;;;8.53;3.50;;;4.00;99.90;;;;;;5077967;28;20266;-61
2022/01/16 12:25:08;;;;;;;10.40;4.17;;;4.10;99.90;;;;;;5067718;28;20203;-61
2022/01/16 12:27:46;;;;;;;25.30;6.37;;;4.10;99.90;;;;;;5074300;28;20198;-60
2022/01/16 12:30:35;;;;;;;22.60;5.63;;;4.00;99.90;;;;;;5078896;28;20240;-61
2022/01/16 12:33:08;;;;;;;25.23;6.27;;;4.00;99.90;;;;;;5084028;28;20192;-61
2022/01/16 12:36:10;;;;;;;20.83;5.77;;;3.90;99.90;;;;;;5085029;28;20196;-62
2022/01/16 12:39:04;;;;;;;19.47;6.07;;;3.90;99.90;;;;;;5078662;28;20280;-61
2022/01/16 12:41:35;;;;;;;22.27;6.23;;;3.80;99.90;;;;;;5063845;28;20204;-62
2022/01/16 12:44:05;;;;;;;19.97;5.40;;;3.80;99.90;;;;;;5085215;28;20193;-62
2022/01/16 12:46:35;;;;;;;10.17;4.37;;;3.80;99.90;;;;;;5089163;28;20197;-60
2022/01/16 12:49:07;;;;;;;21.03;5.20;;;3.90;99.90;;;;;;5082311;28;20677;-60
2022/01/16 12:51:37;;;;;;;14.47;4.87;;;3.90;99.90;;;;;;5084686;28;20192;-62
2022/01/16 12:54:12;;;;;;;18.57;5.63;;;3.80;99.90;;;;;;5071697;28;20196;-60
2022/01/16 12:56:42;;;;;;;21.27;5.87;;;3.80;99.90;;;;;;5087626;28;20295;-61
2022/01/16 12:59:16;;;;;;;23.40;6.33;;;3.90;99.90;;;;;;5091655;28;20224;-61
2022/01/16 13:01:49;;;;;;;14.93;5.10;;;3.90;99.90;;;;;;5068738;28;20239;-60
2022/01/16 13:04:29;;;;;;;15.50;4.90;;;3.90;99.90;;;;;;5086296;28;20204;-61
2022/01/16 13:06:57;;;;;;;16.33;5.53;;;3.90;99.90;;;;;;5093371;28;20279;-61
2022/01/16 13:09:27;;;;;;;17.50;5.87;;;3.90;99.90;;;;;;5087446;28;20185;-61
2022/01/16 13:11:58;;;;;;;24.13;6.10;;;3.90;99.90;;;;;;5090910;28;20196;-60
2022/01/16 13:14:28;;;;;;;15.27;5.23;;;3.90;99.90;;;;;;5073562;28;20516;-60
2022/01/16 13:16:57;;;;;;;18.17;5.60;;;3.90;99.90;;;;;;5086610;28;20270;-61
2022/01/16 13:19:25;;;;;;;16.67;5.90;;;3.90;99.90;;;;;;5086333;28;20280;-61
2022/01/16 13:22:03;;;;;;;23.53;7.83;;;3.90;99.90;;;;;;5087237;28;20218;-61
2022/01/16 13:24:37;;;;;;;26.20;8.13;;;3.90;99.90;;;;;;5075007;28;20200;-61
2022/01/16 13:27:07;;;;;;;27.30;7.83;;;3.90;99.90;;;;;;5072883;28;20261;-61
2022/01/16 13:29:37;;;;;;;29.20;8.67;;;3.90;99.90;;;;;;5081762;28;20322;-60
2022/01/16 13:32:06;;;;;;;23.23;7.43;;;3.90;99.90;;;;;;5083400;28;20559;-60
2022/01/16 13:34:36;;;;;;;22.23;7.40;;;3.90;99.90;;;;;;5082705;28;20910;-60